Fort Osage, Missouri
Current Conditions -  °F | °C
As of 6:35 PM on Thursday 25 Dec 2014 (Local Time) from KGPH Reporting Station
Clear Clear  
Wind Chill: 50°   Ceiling: Unl
Heat Index: 50°   Visibility: 10mi
Dew Point: 30°   Wind: 10mph
Humidity: 47%   Direction: 160°SSE
Pressure: 29.76"   Gusts: NA
Location:  39.1591°N, 94.1879°W
Report Text: KGPH 260035Z AUTO 16009KT 10SM CLR 10/M01 A2976 RMK AO2
Loading
Personal Weather Stations






























Interactive Weather Map New forecast layout! Learn more

10-Day Weather Forecast

Advertisements
Track Severe Weather on mobile